createdAt,value
2022-11-12T00:00:27.265Z,4.4
2022-11-12T00:05:27.506Z,4.4
2022-11-12T00:10:27.158Z,4.4
2022-11-12T00:15:30.710Z,4.4
2022-11-12T00:20:27.213Z,4.4
2022-11-12T00:25:26.396Z,4.4
2022-11-12T00:30:26.319Z,4.4
2022-11-12T00:35:26.390Z,4.4
2022-11-12T00:40:26.384Z,4.4
2022-11-12T00:45:26.558Z,4.4
2022-11-12T00:50:26.275Z,4.4
2022-11-12T00:55:26.415Z,4.3
2022-11-12T01:00:26.392Z,4.3
2022-11-12T01:05:26.577Z,4.3
2022-11-12T01:10:26.310Z,4.2
2022-11-12T01:15:26.356Z,4.2
2022-11-12T01:20:26.293Z,4.2
2022-11-12T01:25:26.647Z,4.1
2022-11-12T01:30:26.880Z,4.1
2022-11-12T01:35:27.109Z,4.1
2022-11-12T01:40:26.324Z,4.0
2022-11-12T01:45:26.317Z,4.0
2022-11-12T01:50:26.288Z,3.9
2022-11-12T01:55:26.508Z,3.9
2022-11-12T02:00:26.237Z,3.8
2022-11-12T02:05:26.243Z,3.8
2022-11-12T02:10:26.258Z,3.8
2022-11-12T02:15:26.398Z,3.7
2022-11-12T02:20:26.165Z,3.7
2022-11-12T02:25:26.106Z,3.6
2022-11-12T02:30:26.250Z,3.6
2022-11-12T02:35:26.097Z,3.6
2022-11-12T02:40:26.100Z,3.6
2022-11-12T02:45:26.070Z,3.6
2022-11-12T02:50:26.060Z,3.5
2022-11-12T02:55:26.255Z,3.5
2022-11-12T03:00:26.137Z,3.5
2022-11-12T03:05:26.147Z,3.4
2022-11-12T03:10:26.124Z,3.4
2022-11-12T03:15:26.174Z,3.4
2022-11-12T03:20:26.183Z,3.4
2022-11-12T03:25:26.229Z,3.4
2022-11-12T03:30:26.072Z,3.3
2022-11-12T03:35:26.107Z,3.3
2022-11-12T03:40:25.939Z,3.2
2022-11-12T03:45:26.097Z,3.2
2022-11-12T03:50:26.078Z,3.2
2022-11-12T03:55:26.023Z,3.1
2022-11-12T04:00:26.251Z,3.1
2022-11-12T04:05:26.037Z,3.1
2022-11-12T04:10:26.074Z,3.1
2022-11-12T04:15:26.034Z,3.0
2022-11-12T04:20:25.909Z,3.0
2022-11-12T04:25:25.947Z,3.0
2022-11-12T04:30:25.986Z,2.9
2022-11-12T04:35:25.942Z,2.9
2022-11-12T04:40:25.868Z,2.9
2022-11-12T04:45:25.906Z,2.9
2022-11-12T04:50:25.875Z,2.8
2022-11-12T04:55:25.893Z,2.8
2022-11-12T05:00:25.957Z,2.8
2022-11-12T05:05:29.696Z,2.7
2022-11-12T05:10:25.825Z,2.7
2022-11-12T05:15:26.001Z,2.6
2022-11-12T05:20:25.816Z,2.6
2022-11-12T05:25:25.779Z,2.5
2022-11-12T05:30:25.914Z,2.5
2022-11-12T05:35:25.760Z,2.5
2022-11-12T05:40:25.763Z,2.5
2022-11-12T05:45:25.877Z,2.4
2022-11-12T05:50:31.081Z,2.4
2022-11-12T05:55:25.721Z,2.4
2022-11-12T06:00:25.759Z,2.4
2022-11-12T06:05:25.790Z,2.4
2022-11-12T06:10:25.740Z,2.4
2022-11-12T06:15:25.683Z,2.4
2022-11-12T06:20:25.747Z,2.4
2022-11-12T06:25:25.721Z,2.4
2022-11-12T06:30:25.995Z,2.5
2022-11-12T06:35:25.882Z,2.5
2022-11-12T06:40:25.794Z,2.5
2022-11-12T06:45:25.826Z,2.5
2022-11-12T06:50:25.782Z,2.5
2022-11-12T06:55:25.711Z,2.6
2022-11-12T07:00:25.725Z,2.6
2022-11-12T07:05:25.810Z,2.7
2022-11-12T07:10:25.933Z,2.8
2022-11-12T07:15:25.628Z,2.9
2022-11-12T07:20:25.614Z,3.1
2022-11-12T07:25:25.651Z,3.2
2022-11-12T07:30:25.622Z,3.3
2022-11-12T07:35:25.671Z,3.5
2022-11-12T07:40:26.338Z,3.6
2022-11-12T07:45:26.257Z,3.8
2022-11-12T07:50:26.253Z,4.0
2022-11-12T07:55:26.288Z,4.2
2022-11-12T08:00:25.673Z,4.3
2022-11-12T08:05:25.561Z,4.5
2022-11-12T08:10:25.627Z,4.7
2022-11-12T08:15:25.580Z,4.8
2022-11-12T08:20:25.445Z,5.0
2022-11-12T08:25:25.750Z,5.2
2022-11-12T08:30:25.505Z,5.4
2022-11-12T08:35:25.486Z,5.6
2022-11-12T08:40:25.585Z,5.7
2022-11-12T08:45:25.477Z,5.9
2022-11-12T08:50:25.726Z,6.1
2022-11-12T08:55:25.576Z,6.2
2022-11-12T09:00:25.816Z,6.4
2022-11-12T09:05:25.635Z,6.6
2022-11-12T09:10:25.506Z,6.8
2022-11-12T09:15:37.861Z,7.0
2022-11-12T09:20:25.578Z,7.2
2022-11-12T09:25:25.356Z,7.4
2022-11-12T09:30:25.538Z,7.6
2022-11-12T09:35:25.625Z,7.8
2022-11-12T09:40:25.443Z,8.0
2022-11-12T09:45:25.444Z,8.1
2022-11-12T09:50:25.570Z,8.3
2022-11-12T09:55:25.532Z,8.5
2022-11-12T10:00:25.542Z,8.7
2022-11-12T10:05:25.355Z,8.9
2022-11-12T10:10:25.253Z,9.1
2022-11-12T10:15:25.332Z,9.3
2022-11-12T10:20:25.441Z,9.6
2022-11-12T10:25:35.891Z,9.8
2022-11-12T10:30:25.264Z,10.1
2022-11-12T10:35:25.471Z,10.3
2022-11-12T10:40:25.265Z,10.5
2022-11-12T10:45:25.361Z,10.7
2022-11-12T10:50:25.358Z,10.9
2022-11-12T10:55:25.303Z,10.9
2022-11-12T11:00:25.281Z,11.0
2022-11-12T11:05:25.599Z,11.2
2022-11-12T11:10:25.149Z,11.3
2022-11-12T11:15:25.203Z,11.3
2022-11-12T11:20:25.447Z,11.4
2022-11-12T11:25:25.182Z,11.6
2022-11-12T11:30:25.180Z,11.7
2022-11-12T11:35:25.295Z,11.8
2022-11-12T11:40:25.174Z,11.9
2022-11-12T11:45:25.180Z,11.9
2022-11-12T11:50:25.513Z,11.9
2022-11-12T11:55:25.218Z,12.0
2022-11-12T12:00:25.371Z,12.0
2022-11-12T12:05:26.425Z,12.0
2022-11-12T12:10:46.305Z,12.0
2022-11-12T12:15:25.139Z,12.0
2022-11-12T12:20:25.172Z,11.9
2022-11-12T12:25:25.130Z,11.9
2022-11-12T12:30:25.247Z,11.9
2022-11-12T12:35:25.227Z,11.9
2022-11-12T12:40:25.096Z,11.9
2022-11-12T12:45:25.073Z,11.9
2022-11-12T12:50:25.184Z,11.8
2022-11-12T12:55:25.045Z,11.9
2022-11-12T13:00:25.328Z,11.9
2022-11-12T13:05:25.622Z,11.8
2022-11-12T13:10:25.154Z,11.8
2022-11-12T13:15:25.105Z,11.8
2022-11-12T13:20:25.252Z,11.8
2022-11-12T13:25:24.995Z,11.8
2022-11-12T13:30:25.034Z,11.8
2022-11-12T13:35:25.265Z,11.7
2022-11-12T13:40:24.959Z,11.7
2022-11-12T13:45:25.222Z,11.6
2022-11-12T13:50:25.328Z,11.6
2022-11-12T13:55:25.061Z,11.5
2022-11-12T14:00:25.158Z,11.5
2022-11-12T14:05:25.165Z,11.4
2022-11-12T14:10:25.000Z,11.3
2022-11-12T14:15:25.942Z,11.1
2022-11-12T14:20:25.118Z,11.0
2022-11-12T14:25:26.026Z,10.9
2022-11-12T14:30:25.679Z,10.8
2022-11-12T14:35:26.302Z,10.6
2022-11-12T14:40:25.847Z,10.5
2022-11-12T14:45:25.779Z,10.4
2022-11-12T14:50:25.634Z,10.2
2022-11-12T14:55:25.006Z,10.1
2022-11-12T15:00:24.937Z,9.9
2022-11-12T15:05:25.223Z,9.7
2022-11-12T15:10:25.649Z,9.5
2022-11-12T15:15:25.898Z,9.3
2022-11-12T15:20:24.788Z,9.0
2022-11-12T15:25:24.913Z,8.8
2022-11-12T15:30:24.949Z,8.5
2022-11-12T15:35:24.836Z,8.1
2022-11-12T15:40:24.791Z,7.9
2022-11-12T15:45:24.971Z,7.6
2022-11-12T16:45:35.276Z,7.4
2022-11-12T16:50:35.228Z,6.4
2022-11-12T16:55:35.725Z,6.3
2022-11-12T17:00:35.136Z,6.2
2022-11-12T17:05:35.161Z,6.1
2022-11-12T17:10:35.141Z,6.0
2022-11-12T17:15:35.183Z,5.9
2022-11-12T17:20:35.220Z,5.9
2022-11-12T17:25:35.256Z,5.8
2022-11-12T17:30:35.120Z,5.7
2022-11-12T17:35:35.157Z,5.7
2022-11-12T17:40:35.091Z,5.6
2022-11-12T17:45:35.081Z,5.6
2022-11-12T17:50:35.490Z,5.6
2022-11-12T17:55:35.049Z,5.6
2022-11-12T18:00:35.053Z,5.6
2022-11-12T18:05:35.091Z,5.6
2022-11-12T18:10:35.128Z,5.6
2022-11-12T18:15:35.328Z,5.6
2022-11-12T18:20:37.148Z,5.6
2022-11-12T18:25:34.917Z,5.6
2022-11-12T18:30:34.923Z,5.6
2022-11-12T18:35:35.122Z,5.6
2022-11-12T18:40:34.991Z,5.6
2022-11-12T18:45:35.207Z,5.6
2022-11-12T18:50:34.827Z,5.6
2022-11-12T18:55:34.985Z,5.6
2022-11-12T19:00:35.085Z,5.6
2022-11-12T19:05:34.936Z,5.7
2022-11-12T19:10:35.627Z,5.7
2022-11-12T19:15:35.134Z,5.8
2022-11-12T19:20:34.922Z,5.8
2022-11-12T19:25:35.103Z,5.9
2022-11-12T19:30:34.814Z,5.9
2022-11-12T19:35:34.883Z,5.9
2022-11-12T19:40:34.940Z,6.0
2022-11-12T19:45:35.562Z,6.0
2022-11-12T19:50:34.869Z,6.0
2022-11-12T19:55:39.740Z,6.1
2022-11-12T20:00:35.000Z,6.1
2022-11-12T20:10:35.254Z,6.2
2022-11-12T20:15:34.839Z,6.2
2022-11-12T20:20:36.277Z,6.2
2022-11-12T20:25:35.687Z,6.3
2022-11-12T20:30:35.470Z,6.3
2022-11-12T20:35:36.143Z,6.3
2022-11-12T20:40:35.461Z,6.3
2022-11-12T20:45:35.403Z,6.3
2022-11-12T20:50:35.389Z,6.4
2022-11-12T20:55:35.593Z,6.4
2022-11-12T21:00:35.339Z,6.4
2022-11-12T21:05:35.522Z,6.4
2022-11-12T21:10:35.333Z,6.4
2022-11-12T21:15:35.341Z,6.4
2022-11-12T21:20:35.410Z,6.4
2022-11-12T21:25:35.485Z,6.4
2022-11-12T21:30:34.731Z,6.4
2022-11-12T21:35:35.473Z,6.4
2022-11-12T21:40:34.701Z,6.4
2022-11-12T21:45:35.558Z,6.4
2022-11-12T21:50:34.635Z,6.4
2022-11-12T21:55:35.504Z,6.4
2022-11-12T22:00:42.032Z,6.4
2022-11-12T22:05:34.637Z,6.3
2022-11-12T22:10:34.519Z,6.3
2022-11-12T22:15:34.796Z,6.3
2022-11-12T22:20:34.554Z,6.2
2022-11-12T22:25:34.616Z,6.2
2022-11-12T22:30:34.743Z,6.2
2022-11-12T22:35:35.046Z,6.2
2022-11-12T22:40:34.617Z,6.2
2022-11-12T22:45:35.443Z,6.2
2022-11-12T22:50:34.613Z,6.1
2022-11-12T22:55:34.619Z,6.1
2022-11-12T23:00:34.422Z,6.1
2022-11-12T23:05:34.427Z,6.1
2022-11-12T23:10:34.448Z,6.1
2022-11-12T23:15:34.418Z,6.1
2022-11-12T23:20:35.059Z,6.1
2022-11-12T23:25:35.080Z,6.1
2022-11-12T23:30:35.101Z,6.1
2022-11-12T23:35:35.166Z,6.1
2022-11-12T23:40:35.292Z,6.1
2022-11-12T23:45:35.226Z,6.1
2022-11-12T23:50:34.472Z,6.1
2022-11-12T23:55:38.401Z,6.1
